sensor_id;sensor_type;location;lat;lon;timestamp;P1;durP1;ratioP1;P2;durP2;ratioP2
21591;SDS011;10958;50.892;3.992;2022-08-14T00:00:53;4.78;;;2.20;;
21591;SDS011;10958;50.892;3.992;2022-08-14T00:03:21;4.07;;;2.40;;
21591;SDS011;10958;50.892;3.992;2022-08-14T00:08:14;5.88;;;2.10;;
21591;SDS011;10958;50.892;3.992;2022-08-14T00:10:40;2.90;;;2.42;;
21591;SDS011;10958;50.892;3.992;2022-08-14T00:13:05;3.67;;;2.10;;
21591;SDS011;10958;50.892;3.992;2022-08-14T00:15:34;6.20;;;2.45;;
21591;SDS011;10958;50.892;3.992;2022-08-14T00:18:03;3.13;;;2.28;;
21591;SDS011;10958;50.892;3.992;2022-08-14T00:20:31;4.70;;;2.60;;
21591;SDS011;10958;50.892;3.992;2022-08-14T00:22:59;4.35;;;2.22;;
21591;SDS011;10958;50.892;3.992;2022-08-14T00:25:25;5.53;;;2.47;;
21591;SDS011;10958;50.892;3.992;2022-08-14T00:27:51;6.65;;;2.60;;
21591;SDS011;10958;50.892;3.992;2022-08-14T00:30:17;4.30;;;2.50;;
21591;SDS011;10958;50.892;3.992;2022-08-14T00:32:43;4.93;;;2.60;;
21591;SDS011;10958;50.892;3.992;2022-08-14T00:35:10;5.97;;;2.50;;
21591;SDS011;10958;50.892;3.992;2022-08-14T00:37:40;4.00;;;2.53;;
21591;SDS011;10958;50.892;3.992;2022-08-14T00:40:07;4.95;;;2.50;;
21591;SDS011;10958;50.892;3.992;2022-08-14T00:42:35;9.30;;;2.70;;
21591;SDS011;10958;50.892;3.992;2022-08-14T00:45:01;4.05;;;2.58;;
21591;SDS011;10958;50.892;3.992;2022-08-14T00:47:27;9.57;;;2.83;;
21591;SDS011;10958;50.892;3.992;2022-08-14T00:49:54;5.82;;;2.50;;
21591;SDS011;10958;50.892;3.992;2022-08-14T00:52:22;7.90;;;2.78;;
21591;SDS011;10958;50.892;3.992;2022-08-14T00:57:38;6.60;;;2.45;;
21591;SDS011;10958;50.892;3.992;2022-08-14T01:00:08;6.97;;;2.40;;
21591;SDS011;10958;50.892;3.992;2022-08-14T01:02:37;6.13;;;2.67;;
21591;SDS011;10958;50.892;3.992;2022-08-14T01:05:04;6.55;;;2.63;;
21591;SDS011;10958;50.892;3.992;2022-08-14T01:07:31;7.10;;;2.63;;
21591;SDS011;10958;50.892;3.992;2022-08-14T01:09:58;3.55;;;2.33;;
21591;SDS011;10958;50.892;3.992;2022-08-14T01:12:26;4.85;;;2.58;;
21591;SDS011;10958;50.892;3.992;2022-08-14T01:14:53;5.05;;;2.38;;
21591;SDS011;10958;50.892;3.992;2022-08-14T01:17:21;4.28;;;2.97;;
21591;SDS011;10958;50.892;3.992;2022-08-14T01:19:47;4.40;;;2.55;;
21591;SDS011;10958;50.892;3.992;2022-08-14T01:22:32;4.10;;;2.58;;
21591;SDS011;10958;50.892;3.992;2022-08-14T01:25:00;4.63;;;2.70;;
21591;SDS011;10958;50.892;3.992;2022-08-14T01:27:25;7.00;;;2.63;;
21591;SDS011;10958;50.892;3.992;2022-08-14T01:29:53;5.30;;;2.53;;
21591;SDS011;10958;50.892;3.992;2022-08-14T01:32:20;4.28;;;2.70;;
21591;SDS011;10958;50.892;3.992;2022-08-14T01:34:47;3.65;;;2.83;;
21591;SDS011;10958;50.892;3.992;2022-08-14T01:37:20;9.80;;;2.80;;
21591;SDS011;10958;50.892;3.992;2022-08-14T01:39:52;2.78;;;2.38;;
21591;SDS011;10958;50.892;3.992;2022-08-14T01:42:18;3.47;;;2.65;;
21591;SDS011;10958;50.892;3.992;2022-08-14T01:44:45;5.75;;;3.03;;
21591;SDS011;10958;50.892;3.992;2022-08-14T01:47:15;7.60;;;2.67;;
21591;SDS011;10958;50.892;3.992;2022-08-14T01:49:42;6.10;;;2.80;;
21591;SDS011;10958;50.892;3.992;2022-08-14T01:52:09;4.35;;;2.53;;
21591;SDS011;10958;50.892;3.992;2022-08-14T01:54:34;5.80;;;2.88;;
21591;SDS011;10958;50.892;3.992;2022-08-14T01:57:00;8.27;;;2.60;;
21591;SDS011;10958;50.892;3.992;2022-08-14T01:59:30;4.40;;;2.45;;
21591;SDS011;10958;50.892;3.992;2022-08-14T02:01:58;2.90;;;2.63;;
21591;SDS011;10958;50.892;3.992;2022-08-14T02:04:28;6.75;;;3.42;;
21591;SDS011;10958;50.892;3.992;2022-08-14T02:06:57;3.13;;;2.83;;
21591;SDS011;10958;50.892;3.992;2022-08-14T02:09:23;6.53;;;2.58;;
21591;SDS011;10958;50.892;3.992;2022-08-14T02:11:50;3.45;;;2.70;;
21591;SDS011;10958;50.892;3.992;2022-08-14T02:14:16;3.30;;;2.70;;
21591;SDS011;10958;50.892;3.992;2022-08-14T02:16:47;3.60;;;2.40;;
21591;SDS011;10958;50.892;3.992;2022-08-14T02:19:18;5.18;;;2.50;;
21591;SDS011;10958;50.892;3.992;2022-08-14T02:21:51;5.75;;;3.00;;
21591;SDS011;10958;50.892;3.992;2022-08-14T02:24:41;4.78;;;2.70;;
21591;SDS011;10958;50.892;3.992;2022-08-14T02:27:06;5.10;;;2.95;;
21591;SDS011;10958;50.892;3.992;2022-08-14T02:29:35;6.18;;;2.85;;
21591;SDS011;10958;50.892;3.992;2022-08-14T02:32:00;4.13;;;2.65;;
21591;SDS011;10958;50.892;3.992;2022-08-14T02:34:30;4.43;;;2.67;;
21591;SDS011;10958;50.892;3.992;2022-08-14T02:37:00;3.10;;;2.80;;
21591;SDS011;10958;50.892;3.992;2022-08-14T02:39:29;6.28;;;2.90;;
21591;SDS011;10958;50.892;3.992;2022-08-14T02:41:57;3.15;;;2.70;;
21591;SDS011;10958;50.892;3.992;2022-08-14T02:44:23;3.30;;;2.95;;
21591;SDS011;10958;50.892;3.992;2022-08-14T02:46:50;5.82;;;2.67;;
21591;SDS011;10958;50.892;3.992;2022-08-14T02:49:19;4.93;;;2.63;;
21591;SDS011;10958;50.892;3.992;2022-08-14T02:51:51;3.33;;;2.80;;
21591;SDS011;10958;50.892;3.992;2022-08-14T02:54:18;5.72;;;2.67;;
21591;SDS011;10958;50.892;3.992;2022-08-14T02:59:13;4.03;;;2.83;;
21591;SDS011;10958;50.892;3.992;2022-08-14T03:01:41;2.70;;;2.50;;
21591;SDS011;10958;50.892;3.992;2022-08-14T03:04:07;4.00;;;2.83;;
21591;SDS011;10958;50.892;3.992;2022-08-14T03:06:34;6.95;;;2.80;;
21591;SDS011;10958;50.892;3.992;2022-08-14T03:09:02;3.53;;;2.85;;
21591;SDS011;10958;50.892;3.992;2022-08-14T03:11:28;5.10;;;3.00;;
21591;SDS011;10958;50.892;3.992;2022-08-14T03:13:55;5.30;;;2.90;;
21591;SDS011;10958;50.892;3.992;2022-08-14T03:16:22;3.40;;;3.00;;
21591;SDS011;10958;50.892;3.992;2022-08-14T03:18:50;3.30;;;2.78;;
21591;SDS011;10958;50.892;3.992;2022-08-14T03:21:19;3.30;;;2.38;;
21591;SDS011;10958;50.892;3.992;2022-08-14T03:23:47;4.30;;;3.05;;
21591;SDS011;10958;50.892;3.992;2022-08-14T03:26:16;3.50;;;2.60;;
21591;SDS011;10958;50.892;3.992;2022-08-14T03:28:48;5.88;;;2.65;;
21591;SDS011;10958;50.892;3.992;2022-08-14T03:31:15;4.57;;;2.70;;
21591;SDS011;10958;50.892;3.992;2022-08-14T03:33:49;7.38;;;2.42;;
21591;SDS011;10958;50.892;3.992;2022-08-14T03:36:15;5.78;;;2.90;;
21591;SDS011;10958;50.892;3.992;2022-08-14T03:38:45;4.82;;;2.55;;
21591;SDS011;10958;50.892;3.992;2022-08-14T03:41:20;4.18;;;3.05;;
21591;SDS011;10958;50.892;3.992;2022-08-14T03:43:48;5.47;;;2.70;;
21591;SDS011;10958;50.892;3.992;2022-08-14T03:46:17;5.78;;;2.55;;
21591;SDS011;10958;50.892;3.992;2022-08-14T03:48:44;2.78;;;2.40;;
21591;SDS011;10958;50.892;3.992;2022-08-14T03:51:10;3.00;;;2.63;;
21591;SDS011;10958;50.892;3.992;2022-08-14T03:53:38;7.15;;;2.55;;
21591;SDS011;10958;50.892;3.992;2022-08-14T03:56:07;3.80;;;2.42;;
21591;SDS011;10958;50.892;3.992;2022-08-14T03:58:44;7.72;;;2.75;;
21591;SDS011;10958;50.892;3.992;2022-08-14T04:01:14;2.88;;;2.40;;
21591;SDS011;10958;50.892;3.992;2022-08-14T04:03:43;2.95;;;2.42;;
21591;SDS011;10958;50.892;3.992;2022-08-14T04:06:09;4.72;;;2.53;;
21591;SDS011;10958;50.892;3.992;2022-08-14T04:08:36;5.28;;;2.58;;
21591;SDS011;10958;50.892;3.992;2022-08-14T04:11:03;4.95;;;2.70;;
21591;SDS011;10958;50.892;3.992;2022-08-14T04:13:30;2.38;;;2.17;;
21591;SDS011;10958;50.892;3.992;2022-08-14T04:15:57;11.30;;;3.17;;
21591;SDS011;10958;50.892;3.992;2022-08-14T04:18:24;6.15;;;2.25;;
21591;SDS011;10958;50.892;3.992;2022-08-14T04:20:50;4.47;;;2.67;;
21591;SDS011;10958;50.892;3.992;2022-08-14T04:23:16;5.10;;;2.33;;
21591;SDS011;10958;50.892;3.992;2022-08-14T04:25:41;4.53;;;2.60;;
21591;SDS011;10958;50.892;3.992;2022-08-14T04:28:08;6.40;;;3.20;;
21591;SDS011;10958;50.892;3.992;2022-08-14T04:30:35;5.28;;;2.33;;
21591;SDS011;10958;50.892;3.992;2022-08-14T04:33:05;2.45;;;2.25;;
21591;SDS011;10958;50.892;3.992;2022-08-14T04:35:32;6.72;;;2.20;;
21591;SDS011;10958;50.892;3.992;2022-08-14T04:37:59;2.95;;;1.98;;
21591;SDS011;10958;50.892;3.992;2022-08-14T04:40:43;3.10;;;2.10;;
21591;SDS011;10958;50.892;3.992;2022-08-14T04:43:27;4.25;;;2.20;;
21591;SDS011;10958;50.892;3.992;2022-08-14T04:46:13;6.65;;;2.33;;
21591;SDS011;10958;50.892;3.992;2022-08-14T04:48:41;2.45;;;2.25;;
21591;SDS011;10958;50.892;3.992;2022-08-14T04:51:08;3.78;;;2.42;;
21591;SDS011;10958;50.892;3.992;2022-08-14T04:53:39;4.03;;;2.28;;
21591;SDS011;10958;50.892;3.992;2022-08-14T04:56:08;5.90;;;2.50;;
21591;SDS011;10958;50.892;3.992;2022-08-14T04:58:35;5.45;;;2.30;;
21591;SDS011;10958;50.892;3.992;2022-08-14T05:01:03;4.90;;;2.50;;
21591;SDS011;10958;50.892;3.992;2022-08-14T05:03:31;4.72;;;2.80;;
21591;SDS011;10958;50.892;3.992;2022-08-14T05:05:59;3.45;;;2.50;;
21591;SDS011;10958;50.892;3.992;2022-08-14T05:08:27;5.00;;;2.03;;
21591;SDS011;10958;50.892;3.992;2022-08-14T05:10:54;9.52;;;2.67;;
21591;SDS011;10958;50.892;3.992;2022-08-14T05:13:22;4.72;;;2.90;;
21591;SDS011;10958;50.892;3.992;2022-08-14T05:15:49;4.03;;;2.47;;
21591;SDS011;10958;50.892;3.992;2022-08-14T05:18:17;7.55;;;2.67;;
21591;SDS011;10958;50.892;3.992;2022-08-14T05:20:48;5.63;;;2.28;;
21591;SDS011;10958;50.892;3.992;2022-08-14T05:23:17;6.93;;;2.47;;
21591;SDS011;10958;50.892;3.992;2022-08-14T05:25:45;4.32;;;2.60;;
21591;SDS011;10958;50.892;3.992;2022-08-14T05:28:14;3.33;;;2.70;;
21591;SDS011;10958;50.892;3.992;2022-08-14T05:30:43;6.07;;;2.67;;
21591;SDS011;10958;50.892;3.992;2022-08-14T05:33:11;5.03;;;2.42;;
21591;SDS011;10958;50.892;3.992;2022-08-14T05:35:42;6.35;;;2.58;;
21591;SDS011;10958;50.892;3.992;2022-08-14T05:40:42;3.75;;;2.47;;
21591;SDS011;10958;50.892;3.992;2022-08-14T05:43:09;6.13;;;2.40;;
21591;SDS011;10958;50.892;3.992;2022-08-14T05:45:35;6.50;;;3.00;;
21591;SDS011;10958;50.892;3.992;2022-08-14T05:48:01;3.58;;;2.03;;
21591;SDS011;10958;50.892;3.992;2022-08-14T05:50:29;2.30;;;2.10;;
21591;SDS011;10958;50.892;3.992;2022-08-14T05:55:30;4.90;;;3.33;;
21591;SDS011;10958;50.892;3.992;2022-08-14T06:00:24;12.50;;;7.72;;
21591;SDS011;10958;50.892;3.992;2022-08-14T06:02:53;8.52;;;4.65;;
21591;SDS011;10958;50.892;3.992;2022-08-14T06:05:20;7.15;;;2.92;;
21591;SDS011;10958;50.892;3.992;2022-08-14T06:07:47;4.70;;;2.40;;
21591;SDS011;10958;50.892;3.992;2022-08-14T06:10:12;4.40;;;2.50;;
21591;SDS011;10958;50.892;3.992;2022-08-14T06:12:38;2.72;;;2.05;;
21591;SDS011;10958;50.892;3.992;2022-08-14T06:15:04;4.55;;;2.80;;
21591;SDS011;10958;50.892;3.992;2022-08-14T06:17:34;3.60;;;1.88;;
21591;SDS011;10958;50.892;3.992;2022-08-14T06:20:07;2.30;;;1.90;;
21591;SDS011;10958;50.892;3.992;2022-08-14T06:22:33;2.03;;;1.80;;
21591;SDS011;10958;50.892;3.992;2022-08-14T06:24:59;5.13;;;2.00;;
21591;SDS011;10958;50.892;3.992;2022-08-14T06:27:25;4.35;;;1.90;;
21591;SDS011;10958;50.892;3.992;2022-08-14T06:29:50;3.00;;;1.90;;
21591;SDS011;10958;50.892;3.992;2022-08-14T06:32:16;2.50;;;1.83;;
21591;SDS011;10958;50.892;3.992;2022-08-14T06:34:41;4.10;;;2.08;;
21591;SDS011;10958;50.892;3.992;2022-08-14T06:37:07;3.13;;;2.05;;
21591;SDS011;10958;50.892;3.992;2022-08-14T06:39:33;4.15;;;2.03;;
21591;SDS011;10958;50.892;3.992;2022-08-14T06:41:59;5.90;;;2.30;;
21591;SDS011;10958;50.892;3.992;2022-08-14T06:44:25;3.30;;;1.90;;
21591;SDS011;10958;50.892;3.992;2022-08-14T06:46:51;3.65;;;1.90;;
21591;SDS011;10958;50.892;3.992;2022-08-14T06:49:17;2.33;;;1.88;;
21591;SDS011;10958;50.892;3.992;2022-08-14T06:51:43;3.33;;;1.92;;
21591;SDS011;10958;50.892;3.992;2022-08-14T06:54:11;2.45;;;1.77;;
21591;SDS011;10958;50.892;3.992;2022-08-14T06:56:37;4.63;;;2.10;;
21591;SDS011;10958;50.892;3.992;2022-08-14T06:59:03;4.60;;;2.25;;
21591;SDS011;10958;50.892;3.992;2022-08-14T07:01:29;3.72;;;2.00;;
21591;SDS011;10958;50.892;3.992;2022-08-14T07:04:13;3.75;;;1.98;;
21591;SDS011;10958;50.892;3.992;2022-08-14T07:06:57;2.17;;;2.03;;
21591;SDS011;10958;50.892;3.992;2022-08-14T07:09:23;2.40;;;2.20;;
21591;SDS011;10958;50.892;3.992;2022-08-14T07:11:49;2.10;;;2.00;;
21591;SDS011;10958;50.892;3.992;2022-08-14T07:14:15;3.53;;;2.10;;
21591;SDS011;10958;50.892;3.992;2022-08-14T07:16:41;6.60;;;2.60;;
21591;SDS011;10958;50.892;3.992;2022-08-14T07:19:07;8.30;;;3.25;;
21591;SDS011;10958;50.892;3.992;2022-08-14T07:21:33;13.68;;;2.47;;
21591;SDS011;10958;50.892;3.992;2022-08-14T07:24:01;11.37;;;2.40;;
21591;SDS011;10958;50.892;3.992;2022-08-14T07:26:27;9.18;;;2.42;;
21591;SDS011;10958;50.892;3.992;2022-08-14T07:28:53;17.05;;;2.50;;
21591;SDS011;10958;50.892;3.992;2022-08-14T07:31:19;15.73;;;2.20;;
21591;SDS011;10958;50.892;3.992;2022-08-14T07:33:45;11.25;;;2.30;;
21591;SDS011;10958;50.892;3.992;2022-08-14T07:36:15;7.22;;;2.10;;
21591;SDS011;10958;50.892;3.992;2022-08-14T07:38:41;10.73;;;2.22;;
21591;SDS011;10958;50.892;3.992;2022-08-14T07:41:08;8.18;;;2.30;;
21591;SDS011;10958;50.892;3.992;2022-08-14T07:43:35;4.95;;;1.90;;
21591;SDS011;10958;50.892;3.992;2022-08-14T07:46:02;5.70;;;2.25;;
21591;SDS011;10958;50.892;3.992;2022-08-14T07:48:28;10.95;;;2.45;;
21591;SDS011;10958;50.892;3.992;2022-08-14T07:50:54;18.42;;;2.55;;
21591;SDS011;10958;50.892;3.992;2022-08-14T07:53:20;12.05;;;3.17;;
21591;SDS011;10958;50.892;3.992;2022-08-14T07:55:47;7.85;;;2.00;;
21591;SDS011;10958;50.892;3.992;2022-08-14T07:58:13;9.00;;;2.30;;
21591;SDS011;10958;50.892;3.992;2022-08-14T08:00:40;2.55;;;2.35;;
21591;SDS011;10958;50.892;3.992;2022-08-14T08:03:07;4.40;;;2.42;;
21591;SDS011;10958;50.892;3.992;2022-08-14T08:05:37;4.88;;;2.78;;
21591;SDS011;10958;50.892;3.992;2022-08-14T08:08:03;3.33;;;2.53;;
21591;SDS011;10958;50.892;3.992;2022-08-14T08:10:30;3.10;;;2.58;;
21591;SDS011;10958;50.892;3.992;2022-08-14T08:13:04;4.05;;;2.40;;
21591;SDS011;10958;50.892;3.992;2022-08-14T08:15:35;3.63;;;2.40;;
21591;SDS011;10958;50.892;3.992;2022-08-14T08:18:03;3.00;;;2.50;;
21591;SDS011;10958;50.892;3.992;2022-08-14T08:20:32;4.15;;;2.75;;
21591;SDS011;10958;50.892;3.992;2022-08-14T08:22:59;2.70;;;2.50;;
21591;SDS011;10958;50.892;3.992;2022-08-14T08:25:30;4.32;;;2.53;;
21591;SDS011;10958;50.892;3.992;2022-08-14T08:27:59;4.65;;;2.45;;
21591;SDS011;10958;50.892;3.992;2022-08-14T08:30:27;2.85;;;2.65;;
21591;SDS011;10958;50.892;3.992;2022-08-14T08:32:55;4.07;;;2.40;;
21591;SDS011;10958;50.892;3.992;2022-08-14T08:35:26;3.90;;;2.50;;
21591;SDS011;10958;50.892;3.992;2022-08-14T08:37:58;5.50;;;2.65;;
21591;SDS011;10958;50.892;3.992;2022-08-14T08:40:33;3.40;;;2.55;;
21591;SDS011;10958;50.892;3.992;2022-08-14T08:43:20;4.45;;;2.05;;
21591;SDS011;10958;50.892;3.992;2022-08-14T08:45:55;2.63;;;2.30;;
21591;SDS011;10958;50.892;3.992;2022-08-14T08:48:24;2.60;;;2.20;;
21591;SDS011;10958;50.892;3.992;2022-08-14T08:50:56;3.38;;;2.42;;
21591;SDS011;10958;50.892;3.992;2022-08-14T08:53:33;4.07;;;2.20;;
21591;SDS011;10958;50.892;3.992;2022-08-14T08:56:00;5.30;;;2.38;;
21591;SDS011;10958;50.892;3.992;2022-08-14T08:58:27;2.33;;;2.00;;
21591;SDS011;10958;50.892;3.992;2022-08-14T09:00:53;2.40;;;2.20;;
21591;SDS011;10958;50.892;3.992;2022-08-14T09:03:24;4.80;;;2.38;;
21591;SDS011;10958;50.892;3.992;2022-08-14T09:05:55;3.63;;;2.15;;
21591;SDS011;10958;50.892;3.992;2022-08-14T09:08:22;2.10;;;1.90;;
21591;SDS011;10958;50.892;3.992;2022-08-14T09:10:52;3.15;;;1.90;;
21591;SDS011;10958;50.892;3.992;2022-08-14T09:13:20;2.25;;;2.03;;
21591;SDS011;10958;50.892;3.992;2022-08-14T09:15:47;3.40;;;2.10;;
21591;SDS011;10958;50.892;3.992;2022-08-14T09:18:15;8.10;;;2.22;;
21591;SDS011;10958;50.892;3.992;2022-08-14T09:20:43;9.02;;;2.13;;
21591;SDS011;10958;50.892;3.992;2022-08-14T09:23:11;3.25;;;2.25;;
21591;SDS011;10958;50.892;3.992;2022-08-14T09:25:39;6.13;;;2.22;;
21591;SDS011;10958;50.892;3.992;2022-08-14T09:28:06;3.25;;;1.88;;
21591;SDS011;10958;50.892;3.992;2022-08-14T09:30:34;2.30;;;2.05;;
21591;SDS011;10958;50.892;3.992;2022-08-14T09:36:02;3.17;;;1.95;;
21591;SDS011;10958;50.892;3.992;2022-08-14T09:47:44;2.08;;;1.73;;
21591;SDS011;10958;50.892;3.992;2022-08-14T09:52:53;1.70;;;1.60;;
21591;SDS011;10958;50.892;3.992;2022-08-14T09:55:20;2.58;;;1.60;;
21591;SDS011;10958;50.892;3.992;2022-08-14T09:57:47;2.25;;;1.75;;
21591;SDS011;10958;50.892;3.992;2022-08-14T10:03:34;1.80;;;1.70;;
21591;SDS011;10958;50.892;3.992;2022-08-14T10:06:08;1.52;;;1.40;;
21591;SDS011;10958;50.892;3.992;2022-08-14T10:11:35;3.78;;;1.70;;
21591;SDS011;10958;50.892;3.992;2022-08-14T10:16:49;3.28;;;1.52;;
21591;SDS011;10958;50.892;3.992;2022-08-14T10:19:18;1.73;;;1.63;;
21591;SDS011;10958;50.892;3.992;2022-08-14T10:21:56;2.67;;;1.37;;
21591;SDS011;10958;50.892;3.992;2022-08-14T10:24:30;3.78;;;1.38;;
21591;SDS011;10958;50.892;3.992;2022-08-14T10:27:16;1.60;;;1.50;;
21591;SDS011;10958;50.892;3.992;2022-08-14T10:29:47;2.10;;;1.43;;
21591;SDS011;10958;50.892;3.992;2022-08-14T10:32:17;4.53;;;1.45;;
21591;SDS011;10958;50.892;3.992;2022-08-14T10:37:12;4.13;;;1.20;;
21591;SDS011;10958;50.892;3.992;2022-08-14T10:39:41;2.33;;;1.58;;
21591;SDS011;10958;50.892;3.992;2022-08-14T10:42:12;2.72;;;1.45;;
21591;SDS011;10958;50.892;3.992;2022-08-14T10:44:41;2.15;;;1.42;;
21591;SDS011;10958;50.892;3.992;2022-08-14T10:47:11;2.13;;;1.60;;
21591;SDS011;10958;50.892;3.992;2022-08-14T10:49:39;4.53;;;1.45;;
21591;SDS011;10958;50.892;3.992;2022-08-14T10:52:23;1.63;;;1.35;;
21591;SDS011;10958;50.892;3.992;2022-08-14T10:54:51;6.47;;;1.43;;
21591;SDS011;10958;50.892;3.992;2022-08-14T10:57:21;1.95;;;1.30;;
21591;SDS011;10958;50.892;3.992;2022-08-14T10:59:58;2.15;;;1.50;;
21591;SDS011;10958;50.892;3.992;2022-08-14T11:02:32;2.25;;;1.40;;
21591;SDS011;10958;50.892;3.992;2022-08-14T11:05:11;3.70;;;1.55;;
21591;SDS011;10958;50.892;3.992;2022-08-14T11:07:40;2.58;;;1.33;;
21591;SDS011;10958;50.892;3.992;2022-08-14T11:10:18;1.67;;;1.25;;
21591;SDS011;10958;50.892;3.992;2022-08-14T11:12:49;2.30;;;1.52;;
21591;SDS011;10958;50.892;3.992;2022-08-14T11:15:21;1.60;;;1.30;;
21591;SDS011;10958;50.892;3.992;2022-08-14T11:17:49;5.18;;;1.38;;
21591;SDS011;10958;50.892;3.992;2022-08-14T11:20:16;1.50;;;1.40;;
21591;SDS011;10958;50.892;3.992;2022-08-14T11:22:44;3.92;;;1.55;;
21591;SDS011;10958;50.892;3.992;2022-08-14T11:25:12;1.42;;;1.30;;
21591;SDS011;10958;50.892;3.992;2022-08-14T11:27:39;2.57;;;1.43;;
21591;SDS011;10958;50.892;3.992;2022-08-14T11:30:11;3.05;;;1.60;;
21591;SDS011;10958;50.892;3.992;2022-08-14T11:32:45;4.47;;;1.50;;
21591;SDS011;10958;50.892;3.992;2022-08-14T11:35:19;4.10;;;1.63;;
21591;SDS011;10958;50.892;3.992;2022-08-14T11:37:57;5.10;;;1.98;;
21591;SDS011;10958;50.892;3.992;2022-08-14T11:40:26;2.78;;;1.60;;
21591;SDS011;10958;50.892;3.992;2022-08-14T11:42:59;1.65;;;1.55;;
21591;SDS011;10958;50.892;3.992;2022-08-14T11:45:30;1.43;;;1.33;;
21591;SDS011;10958;50.892;3.992;2022-08-14T11:48:13;5.30;;;1.60;;
21591;SDS011;10958;50.892;3.992;2022-08-14T11:50:46;2.70;;;1.63;;
21591;SDS011;10958;50.892;3.992;2022-08-14T11:53:25;2.83;;;1.65;;
21591;SDS011;10958;50.892;3.992;2022-08-14T11:55:59;5.38;;;1.67;;
21591;SDS011;10958;50.892;3.992;2022-08-14T11:58:30;2.05;;;1.45;;
21591;SDS011;10958;50.892;3.992;2022-08-14T12:00:58;1.98;;;1.60;;
21591;SDS011;10958;50.892;3.992;2022-08-14T12:03:37;4.07;;;1.30;;
21591;SDS011;10958;50.892;3.992;2022-08-14T12:08:42;4.70;;;1.70;;
21591;SDS011;10958;50.892;3.992;2022-08-14T12:11:11;2.22;;;1.40;;
21591;SDS011;10958;50.892;3.992;2022-08-14T12:13:38;2.35;;;1.40;;
21591;SDS011;10958;50.892;3.992;2022-08-14T12:16:07;3.13;;;1.27;;
21591;SDS011;10958;50.892;3.992;2022-08-14T12:18:36;2.45;;;1.10;;
21591;SDS011;10958;50.892;3.992;2022-08-14T12:21:09;2.15;;;1.30;;
21591;SDS011;10958;50.892;3.992;2022-08-14T12:23:35;1.52;;;1.33;;
21591;SDS011;10958;50.892;3.992;2022-08-14T12:26:04;2.38;;;1.50;;
21591;SDS011;10958;50.892;3.992;2022-08-14T12:28:32;2.30;;;1.33;;
21591;SDS011;10958;50.892;3.992;2022-08-14T12:30:59;1.20;;;1.10;;
21591;SDS011;10958;50.892;3.992;2022-08-14T12:33:35;2.58;;;1.20;;
21591;SDS011;10958;50.892;3.992;2022-08-14T12:36:02;1.30;;;1.17;;
21591;SDS011;10958;50.892;3.992;2022-08-14T12:38:36;2.78;;;1.30;;
21591;SDS011;10958;50.892;3.992;2022-08-14T12:41:11;2.35;;;1.20;;
21591;SDS011;10958;50.892;3.992;2022-08-14T12:43:50;2.85;;;1.15;;
21591;SDS011;10958;50.892;3.992;2022-08-14T12:46:30;1.40;;;1.30;;
21591;SDS011;10958;50.892;3.992;2022-08-14T12:49:00;1.30;;;1.20;;
21591;SDS011;10958;50.892;3.992;2022-08-14T12:51:32;3.83;;;1.20;;
21591;SDS011;10958;50.892;3.992;2022-08-14T12:53:58;4.85;;;1.13;;
21591;SDS011;10958;50.892;3.992;2022-08-14T12:56:25;3.63;;;1.23;;
21591;SDS011;10958;50.892;3.992;2022-08-14T12:58:55;1.73;;;1.30;;
21591;SDS011;10958;50.892;3.992;2022-08-14T13:04:01;1.40;;;1.30;;
21591;SDS011;10958;50.892;3.992;2022-08-14T13:06:37;1.40;;;1.30;;
21591;SDS011;10958;50.892;3.992;2022-08-14T13:09:04;2.13;;;1.40;;
21591;SDS011;10958;50.892;3.992;2022-08-14T13:11:36;4.13;;;1.25;;
21591;SDS011;10958;50.892;3.992;2022-08-14T13:14:09;3.22;;;1.65;;
21591;SDS011;10958;50.892;3.992;2022-08-14T13:16:38;1.95;;;1.40;;
21591;SDS011;10958;50.892;3.992;2022-08-14T13:19:06;4.30;;;1.58;;
21591;SDS011;10958;50.892;3.992;2022-08-14T13:21:38;2.92;;;1.33;;
21591;SDS011;10958;50.892;3.992;2022-08-14T13:24:04;2.08;;;1.40;;
21591;SDS011;10958;50.892;3.992;2022-08-14T13:26:33;1.60;;;1.50;;
21591;SDS011;10958;50.892;3.992;2022-08-14T13:28:59;1.40;;;1.30;;
21591;SDS011;10958;50.892;3.992;2022-08-14T13:31:27;1.70;;;1.40;;
21591;SDS011;10958;50.892;3.992;2022-08-14T13:33:57;3.53;;;1.42;;
21591;SDS011;10958;50.892;3.992;2022-08-14T13:36:25;1.52;;;1.42;;
21591;SDS011;10958;50.892;3.992;2022-08-14T13:38:52;2.73;;;1.27;;
21591;SDS011;10958;50.892;3.992;2022-08-14T13:41:17;2.72;;;1.63;;
21591;SDS011;10958;50.892;3.992;2022-08-14T13:43:47;3.35;;;1.40;;
21591;SDS011;10958;50.892;3.992;2022-08-14T13:46:15;3.83;;;1.47;;
21591;SDS011;10958;50.892;3.992;2022-08-14T13:48:44;2.65;;;1.70;;
21591;SDS011;10958;50.892;3.992;2022-08-14T13:51:11;2.70;;;1.48;;
21591;SDS011;10958;50.892;3.992;2022-08-14T13:53:46;4.88;;;1.60;;
21591;SDS011;10958;50.892;3.992;2022-08-14T13:56:13;2.65;;;1.50;;
21591;SDS011;10958;50.892;3.992;2022-08-14T13:58:41;1.70;;;1.60;;
21591;SDS011;10958;50.892;3.992;2022-08-14T14:01:10;2.55;;;1.40;;
21591;SDS011;10958;50.892;3.992;2022-08-14T14:03:40;5.72;;;1.70;;
21591;SDS011;10958;50.892;3.992;2022-08-14T14:06:10;1.50;;;1.40;;
21591;SDS011;10958;50.892;3.992;2022-08-14T14:08:39;4.85;;;1.90;;
21591;SDS011;10958;50.892;3.992;2022-08-14T14:11:14;1.48;;;1.30;;
21591;SDS011;10958;50.892;3.992;2022-08-14T14:13:41;1.48;;;1.38;;
21591;SDS011;10958;50.892;3.992;2022-08-14T14:16:10;1.58;;;1.40;;
21591;SDS011;10958;50.892;3.992;2022-08-14T14:18:38;1.30;;;1.20;;
21591;SDS011;10958;50.892;3.992;2022-08-14T14:21:04;1.73;;;1.30;;
21591;SDS011;10958;50.892;3.992;2022-08-14T14:23:31;3.08;;;1.50;;
21591;SDS011;10958;50.892;3.992;2022-08-14T14:28:26;1.55;;;1.45;;
21591;SDS011;10958;50.892;3.992;2022-08-14T14:30:55;1.73;;;1.33;;
21591;SDS011;10958;50.892;3.992;2022-08-14T14:33:21;2.03;;;1.50;;
21591;SDS011;10958;50.892;3.992;2022-08-14T14:35:49;2.13;;;1.30;;
21591;SDS011;10958;50.892;3.992;2022-08-14T14:38:15;2.80;;;1.20;;
21591;SDS011;10958;50.892;3.992;2022-08-14T14:40:44;3.10;;;1.38;;
21591;SDS011;10958;50.892;3.992;2022-08-14T14:43:11;4.00;;;1.25;;
21591;SDS011;10958;50.892;3.992;2022-08-14T14:45:39;2.35;;;1.38;;
21591;SDS011;10958;50.892;3.992;2022-08-14T14:48:09;2.53;;;1.50;;
21591;SDS011;10958;50.892;3.992;2022-08-14T14:50:35;1.48;;;1.38;;
21591;SDS011;10958;50.892;3.992;2022-08-14T14:53:04;1.38;;;1.27;;
21591;SDS011;10958;50.892;3.992;2022-08-14T14:55:31;2.78;;;1.30;;
21591;SDS011;10958;50.892;3.992;2022-08-14T14:57:58;3.28;;;1.60;;
21591;SDS011;10958;50.892;3.992;2022-08-14T15:00:24;5.45;;;1.67;;
21591;SDS011;10958;50.892;3.992;2022-08-14T15:02:50;4.95;;;1.38;;
21591;SDS011;10958;50.892;3.992;2022-08-14T15:05:18;1.60;;;1.50;;
21591;SDS011;10958;50.892;3.992;2022-08-14T15:07:45;3.30;;;1.30;;
21591;SDS011;10958;50.892;3.992;2022-08-14T15:10:14;2.70;;;1.50;;
21591;SDS011;10958;50.892;3.992;2022-08-14T15:15:08;2.10;;;1.55;;
21591;SDS011;10958;50.892;3.992;2022-08-14T15:17:35;2.20;;;1.58;;
21591;SDS011;10958;50.892;3.992;2022-08-14T15:20:05;4.22;;;1.40;;
21591;SDS011;10958;50.892;3.992;2022-08-14T15:22:34;3.47;;;1.52;;
21591;SDS011;10958;50.892;3.992;2022-08-14T15:25:04;1.70;;;1.40;;
21591;SDS011;10958;50.892;3.992;2022-08-14T15:27:31;3.50;;;1.48;;
21591;SDS011;10958;50.892;3.992;2022-08-14T15:29:58;4.63;;;1.77;;
21591;SDS011;10958;50.892;3.992;2022-08-14T15:32:24;2.40;;;1.90;;
21591;SDS011;10958;50.892;3.992;2022-08-14T15:34:50;5.20;;;1.75;;
21591;SDS011;10958;50.892;3.992;2022-08-14T15:37:16;6.47;;;3.65;;
21591;SDS011;10958;50.892;3.992;2022-08-14T15:39:42;5.22;;;3.03;;
21591;SDS011;10958;50.892;3.992;2022-08-14T15:42:08;5.35;;;4.10;;
21591;SDS011;10958;50.892;3.992;2022-08-14T15:44:34;10.80;;;3.42;;
21591;SDS011;10958;50.892;3.992;2022-08-14T15:47:01;5.63;;;3.40;;
21591;SDS011;10958;50.892;3.992;2022-08-14T15:49:30;5.03;;;2.47;;